createdAt,value
2023-03-11T00:00:22.693Z,61.09
2023-03-11T00:02:53.815Z,60.65
2023-03-11T00:05:25.666Z,60.02
2023-03-11T00:07:54.574Z,60.49
2023-03-11T00:10:24.974Z,60.68
2023-03-11T00:12:53.453Z,60.47
2023-03-11T00:15:23.120Z,61.04
2023-03-11T00:17:52.250Z,60.76
2023-03-11T00:20:23.047Z,60.84
2023-03-11T00:22:52.327Z,60.81
2023-03-11T00:25:20.738Z,60.86
2023-03-11T00:27:48.706Z,61.06
2023-03-11T00:30:18.192Z,61.50
2023-03-11T00:32:48.571Z,61.16
2023-03-11T00:35:18.959Z,61.87
2023-03-11T00:37:48.561Z,62.51
2023-03-11T00:40:20.180Z,61.86
2023-03-11T00:42:48.105Z,62.07
2023-03-11T00:45:16.761Z,62.80
2023-03-11T00:47:44.601Z,62.05
2023-03-11T00:50:18.011Z,64.36
2023-03-11T00:52:46.859Z,62.59
2023-03-11T00:55:20.047Z,62.38
2023-03-11T00:57:48.165Z,62.14
2023-03-11T01:00:17.935Z,62.65
2023-03-11T01:02:45.862Z,62.77
2023-03-11T01:05:15.813Z,62.36
2023-03-11T01:07:43.820Z,62.55
2023-03-11T01:10:13.096Z,61.72
2023-03-11T01:12:41.190Z,61.87
2023-03-11T01:15:10.286Z,60.42
2023-03-11T01:17:38.553Z,60.00
2023-03-11T01:20:09.101Z,59.88
2023-03-11T01:22:38.169Z,59.80
2023-03-11T01:25:06.525Z,59.35
2023-03-11T01:27:34.499Z,60.00
2023-03-11T01:30:02.534Z,61.14
2023-03-11T01:32:30.933Z,60.91
2023-03-11T01:34:58.832Z,60.19
2023-03-11T01:37:26.752Z,60.22
2023-03-11T01:39:56.665Z,60.52
2023-03-11T01:42:24.757Z,61.09
2023-03-11T01:44:52.452Z,60.71
2023-03-11T01:47:40.964Z,61.49
2023-03-11T01:50:13.828Z,61.70
2023-03-11T01:52:43.415Z,61.84
2023-03-11T01:55:13.813Z,61.98
2023-03-11T01:57:44.219Z,63.11
2023-03-11T02:00:15.723Z,60.54
2023-03-11T02:02:46.631Z,59.64
2023-03-11T02:05:14.736Z,59.12
2023-03-11T02:07:42.739Z,59.57
2023-03-11T02:10:15.424Z,59.31
2023-03-11T02:12:44.689Z,59.19
2023-03-11T02:15:13.983Z,59.75
2023-03-11T02:17:44.430Z,60.86
2023-03-11T02:20:29.462Z,61.10
2023-03-11T02:23:00.442Z,59.98
2023-03-11T02:25:36.753Z,58.30
2023-03-11T02:28:11.504Z,59.76
2023-03-11T02:30:43.872Z,59.19
2023-03-11T02:33:13.172Z,59.47
2023-03-11T02:35:42.268Z,59.53
2023-03-11T02:38:10.792Z,57.90
2023-03-11T02:40:50.698Z,57.27
2023-03-11T02:43:24.512Z,58.43
2023-03-11T02:45:55.092Z,57.33
2023-03-11T02:48:24.287Z,56.58
2023-03-11T02:50:54.451Z,57.65
2023-03-11T02:53:27.098Z,57.40
2023-03-11T02:55:58.696Z,56.97
2023-03-11T02:58:32.587Z,56.92
2023-03-11T03:01:01.262Z,56.92
2023-03-11T03:03:35.006Z,56.95
2023-03-11T03:06:05.153Z,59.23
2023-03-11T03:08:34.459Z,60.34
2023-03-11T03:11:05.093Z,58.89
2023-03-11T03:13:37.608Z,57.67
2023-03-11T03:16:12.705Z,57.74
2023-03-11T03:18:40.802Z,58.02
2023-03-11T03:21:08.842Z,58.11
2023-03-11T03:23:38.178Z,59.17
2023-03-11T03:26:09.440Z,58.88
2023-03-11T03:28:38.701Z,59.00
2023-03-11T03:31:12.267Z,59.44
2023-03-11T03:33:40.452Z,58.30
2023-03-11T03:36:09.459Z,59.51
2023-03-11T03:38:39.566Z,59.83
2023-03-11T03:41:09.565Z,58.58
2023-03-11T03:43:39.247Z,60.34
2023-03-11T03:46:09.431Z,60.66
2023-03-11T03:48:38.775Z,60.45
2023-03-11T03:51:10.308Z,60.46
2023-03-11T03:53:44.922Z,61.37
2023-03-11T03:56:15.113Z,61.12
2023-03-11T03:58:48.175Z,60.59
2023-03-11T04:01:18.695Z,61.49
2023-03-11T04:03:46.622Z,61.23
2023-03-11T04:06:21.407Z,60.72
2023-03-11T04:09:03.495Z,60.77
2023-03-11T04:11:35.731Z,61.44
2023-03-11T04:14:05.773Z,60.64
2023-03-11T04:16:41.541Z,60.57
2023-03-11T04:19:09.939Z,60.74
2023-03-11T04:21:39.857Z,60.98
2023-03-11T04:24:10.376Z,61.73
2023-03-11T04:26:39.466Z,61.72
2023-03-11T04:29:18.492Z,61.04
2023-03-11T04:31:52.309Z,61.24
2023-03-11T04:34:20.292Z,61.29
2023-03-11T04:36:53.089Z,61.76
2023-03-11T04:39:20.769Z,61.89
2023-03-11T04:41:49.052Z,62.10
2023-03-11T04:44:19.912Z,60.62
2023-03-11T04:46:49.207Z,61.65
2023-03-11T04:49:17.612Z,62.55
2023-03-11T04:51:45.724Z,63.18
2023-03-11T04:54:13.519Z,62.24
2023-03-11T04:56:41.371Z,62.40
2023-03-11T04:59:10.235Z,63.51
2023-03-11T05:01:41.425Z,61.81
2023-03-11T05:04:09.587Z,62.53
2023-03-11T05:06:37.731Z,62.29
2023-03-11T05:09:10.956Z,61.38
2023-03-11T05:11:42.130Z,60.59
2023-03-11T05:14:10.668Z,62.77
2023-03-11T05:16:40.269Z,62.37
2023-03-11T05:19:27.913Z,63.15
2023-03-11T05:21:56.135Z,62.98
2023-03-11T05:24:26.760Z,63.34
2023-03-11T05:26:59.506Z,65.83
2023-03-11T05:29:31.173Z,65.04
2023-03-11T05:32:02.419Z,64.27
2023-03-11T05:34:31.494Z,64.01
2023-03-11T05:37:01.483Z,62.99
2023-03-11T05:39:40.492Z,63.74
2023-03-11T05:42:09.067Z,62.98
2023-03-11T05:44:37.364Z,63.66
2023-03-11T05:47:07.066Z,65.56
2023-03-11T05:49:36.360Z,64.01
2023-03-11T05:52:08.162Z,64.04
2023-03-11T05:54:36.407Z,64.57
2023-03-11T05:57:05.102Z,65.00
2023-03-11T05:59:35.719Z,63.74
2023-03-11T06:02:03.760Z,64.74
2023-03-11T06:04:33.251Z,65.29
2023-03-11T06:07:04.014Z,66.03
2023-03-11T06:09:32.121Z,65.86
2023-03-11T06:11:59.976Z,64.81
2023-03-11T06:14:34.674Z,64.46
2023-03-11T06:17:07.528Z,65.24
2023-03-11T06:19:39.903Z,67.54
2023-03-11T06:22:11.731Z,65.03
2023-03-11T06:24:39.957Z,64.84
2023-03-11T06:27:09.785Z,65.63
2023-03-11T06:29:40.301Z,66.36
2023-03-11T06:32:13.993Z,67.32
2023-03-11T06:34:43.419Z,67.38
2023-03-11T06:37:14.662Z,67.58
2023-03-11T06:39:42.661Z,65.13
2023-03-11T06:42:15.359Z,65.55
2023-03-11T06:44:46.019Z,65.43
2023-03-11T06:47:14.305Z,66.08
2023-03-11T06:49:45.115Z,67.64
2023-03-11T06:52:16.653Z,66.15
2023-03-11T06:54:45.862Z,66.86
2023-03-11T06:57:17.420Z,66.45
2023-03-11T06:59:45.391Z,67.58
2023-03-11T07:02:17.752Z,67.13
2023-03-11T07:04:53.461Z,65.33
2023-03-11T07:07:26.341Z,67.66
2023-03-11T07:09:56.965Z,65.09
2023-03-11T07:12:32.042Z,65.35
2023-03-11T07:15:00.761Z,66.41
2023-03-11T07:17:29.828Z,66.63
2023-03-11T07:19:59.786Z,66.94
2023-03-11T07:22:27.715Z,64.46
2023-03-11T07:24:55.742Z,64.93
2023-03-11T07:27:25.752Z,66.25
2023-03-11T07:29:55.694Z,66.14
2023-03-11T07:32:23.529Z,65.79
2023-03-11T07:34:52.284Z,65.70
2023-03-11T07:37:27.871Z,64.85
2023-03-11T07:39:55.728Z,66.11
2023-03-11T07:42:28.435Z,66.56
2023-03-11T07:45:00.590Z,66.09
2023-03-11T07:47:30.461Z,65.00
2023-03-11T07:49:58.387Z,65.28
2023-03-11T07:52:31.238Z,65.30
2023-03-11T07:54:59.570Z,63.38
2023-03-11T07:57:28.429Z,65.34
2023-03-11T08:00:00.984Z,65.85
2023-03-11T08:02:28.978Z,66.19
2023-03-11T08:04:58.669Z,67.27
2023-03-11T08:07:27.896Z,64.78
2023-03-11T08:09:57.982Z,63.80
2023-03-11T08:12:25.553Z,62.53
2023-03-11T08:14:53.072Z,62.73
2023-03-11T08:17:20.586Z,62.41
2023-03-11T08:19:50.202Z,62.28
2023-03-11T08:22:17.692Z,61.95
2023-03-11T08:24:46.512Z,61.99
2023-03-11T08:27:14.023Z,62.76
2023-03-11T08:29:41.848Z,61.40
2023-03-11T08:32:09.623Z,60.67
2023-03-11T08:34:39.375Z,60.09
2023-03-11T08:37:07.073Z,59.50
2023-03-11T08:39:34.567Z,59.02
2023-03-11T08:42:03.981Z,60.24
2023-03-11T08:44:31.474Z,59.33
2023-03-11T08:46:59.209Z,60.17
2023-03-11T08:49:26.765Z,60.28
2023-03-11T08:51:54.271Z,60.92
2023-03-11T08:54:21.797Z,60.68
2023-03-11T08:56:49.293Z,60.29
2023-03-11T08:59:18.157Z,61.52
2023-03-11T09:01:46.802Z,59.66
2023-03-11T09:04:14.697Z,59.58
2023-03-11T09:06:43.280Z,59.10
2023-03-11T09:09:11.628Z,60.75
2023-03-11T09:11:39.624Z,59.63
2023-03-11T09:14:07.122Z,59.64
2023-03-11T09:16:36.030Z,61.89
2023-03-11T09:19:07.179Z,61.42
2023-03-11T09:21:35.217Z,60.04
2023-03-11T09:24:04.246Z,60.56
2023-03-11T09:26:31.877Z,58.70
2023-03-11T09:28:59.448Z,57.73
2023-03-11T09:31:27.045Z,58.91
2023-03-11T09:33:56.445Z,56.86
2023-03-11T09:36:24.449Z,58.21
2023-03-11T09:38:52.043Z,58.11
2023-03-11T09:41:30.447Z,58.82
2023-03-11T09:44:13.220Z,55.02
2023-03-11T09:47:25.191Z,57.80
2023-03-11T09:50:16.669Z,56.09
2023-03-11T09:52:48.414Z,55.08
2023-03-11T09:55:37.274Z,52.18
2023-03-11T09:58:11.705Z,54.97
2023-03-11T10:00:40.361Z,54.44
2023-03-11T10:03:18.786Z,55.51
2023-03-11T10:05:47.973Z,54.49
2023-03-11T10:08:24.088Z,57.21
2023-03-11T10:11:00.130Z,54.12
2023-03-11T10:13:36.421Z,53.00
2023-03-11T10:16:12.851Z,53.11
2023-03-11T10:18:48.625Z,53.67
2023-03-11T10:21:28.514Z,55.57
2023-03-11T10:24:06.209Z,54.11
2023-03-11T10:26:37.299Z,53.05
2023-03-11T10:29:13.929Z,52.33
2023-03-11T10:31:48.325Z,51.48
2023-03-11T10:34:22.271Z,51.80
2023-03-11T10:36:58.030Z,50.82
2023-03-11T10:39:26.729Z,48.48
2023-03-11T10:41:56.409Z,43.84
2023-03-11T10:44:29.267Z,43.54
2023-03-11T10:46:56.755Z,43.77
2023-03-11T10:49:24.375Z,44.07
2023-03-11T10:51:55.370Z,42.51
2023-03-11T10:54:27.223Z,42.79
2023-03-11T10:56:59.844Z,44.58
2023-03-11T10:59:31.910Z,42.97
2023-03-11T11:02:01.229Z,43.38
2023-03-11T11:04:34.158Z,44.69
2023-03-11T11:07:22.751Z,41.78
2023-03-11T11:10:14.718Z,44.50
2023-03-11T11:12:54.083Z,42.04
2023-03-11T11:15:22.988Z,45.42
2023-03-11T11:17:52.408Z,45.81
2023-03-11T11:20:21.124Z,46.28
2023-03-11T11:22:53.303Z,43.84
2023-03-11T11:25:33.606Z,43.92
2023-03-11T11:28:03.517Z,44.92
2023-03-11T11:30:31.271Z,46.85
2023-03-11T11:33:24.617Z,45.01
2023-03-11T11:35:54.995Z,45.58
2023-03-11T11:38:25.419Z,41.92
2023-03-11T11:40:55.796Z,40.39
2023-03-11T11:43:29.092Z,34.18
2023-03-11T11:46:00.371Z,32.05
2023-03-11T11:48:33.980Z,29.47
2023-03-11T11:51:03.919Z,31.49
2023-03-11T11:53:41.988Z,29.57
2023-03-11T11:56:09.596Z,31.68
2023-03-11T11:58:37.323Z,36.04
2023-03-11T12:01:15.241Z,35.99
2023-03-11T12:04:26.450Z,33.97
2023-03-11T12:07:05.252Z,34.93
2023-03-11T12:09:47.685Z,34.63
2023-03-11T12:12:25.147Z,36.83
2023-03-11T12:15:09.232Z,37.40
2023-03-11T12:17:40.409Z,36.90
2023-03-11T12:20:13.240Z,37.78
2023-03-11T12:23:03.110Z,37.71
2023-03-11T12:25:40.380Z,39.60
2023-03-11T12:28:20.143Z,38.59
2023-03-11T12:30:52.527Z,40.78
2023-03-11T12:33:28.988Z,40.86
2023-03-11T12:35:58.842Z,39.64
2023-03-11T12:38:33.402Z,39.71
2023-03-11T12:41:07.314Z,45.24
2023-03-11T12:44:00.957Z,41.56
2023-03-11T12:47:11.322Z,46.22
2023-03-11T12:49:40.912Z,42.45
2023-03-11T12:52:21.804Z,40.22
2023-03-11T12:54:50.518Z,41.76
2023-03-11T12:57:33.278Z,40.93
2023-03-11T13:00:23.801Z,43.50
2023-03-11T13:03:12.189Z,41.48
2023-03-11T13:05:53.552Z,45.91
2023-03-11T13:08:22.823Z,45.21
2023-03-11T13:10:51.793Z,42.05
2023-03-11T13:13:39.035Z,41.50
2023-03-11T13:16:38.703Z,40.70
2023-03-11T13:19:38.572Z,43.21
2023-03-11T13:22:30.067Z,41.59
2023-03-11T13:24:57.723Z,41.02
2023-03-11T13:27:41.883Z,40.21
2023-03-11T13:30:19.921Z,40.81
2023-03-11T13:33:13.789Z,40.72
2023-03-11T13:36:01.067Z,45.64
2023-03-11T13:38:46.365Z,41.69
2023-03-11T13:41:17.800Z,41.33
2023-03-11T13:43:48.589Z,44.57
2023-03-11T13:46:29.590Z,40.42
2023-03-11T13:49:04.149Z,40.79
2023-03-11T13:51:39.041Z,40.86
2023-03-11T13:54:22.871Z,41.97
2023-03-11T13:56:56.192Z,41.60
2023-03-11T13:59:25.954Z,42.55
2023-03-11T14:01:57.626Z,42.17
2023-03-11T14:04:29.756Z,45.10
2023-03-11T14:06:57.362Z,43.34
2023-03-11T14:09:27.639Z,43.37
2023-03-11T14:11:57.392Z,42.36
2023-03-11T14:14:45.330Z,43.82
2023-03-11T14:17:16.874Z,44.79
2023-03-11T14:19:44.643Z,44.21
2023-03-11T14:22:12.175Z,43.97
2023-03-11T14:24:40.298Z,46.34
2023-03-11T14:27:10.562Z,42.44
2023-03-11T14:32:40.833Z,40.76
2023-03-11T14:35:21.125Z,40.86
2023-03-11T14:37:48.866Z,41.23
2023-03-11T14:40:25.369Z,42.54
2023-03-11T14:42:55.380Z,41.84
2023-03-11T15:09:43.883Z,41.81
2023-03-11T15:12:33.201Z,47.33
2023-03-11T15:15:00.931Z,45.40
2023-03-11T15:17:42.580Z,43.65
2023-03-11T15:20:25.516Z,46.00
2023-03-11T15:52:37.748Z,46.53
2023-03-11T15:55:15.194Z,45.14
2023-03-11T16:13:47.229Z,43.83
2023-03-11T16:16:17.814Z,42.71
2023-03-11T16:18:45.413Z,43.20
2023-03-11T16:21:18.174Z,42.99
2023-03-11T16:23:52.029Z,43.62
2023-03-11T16:26:20.646Z,42.62
2023-03-11T16:28:49.609Z,42.67
2023-03-11T16:31:17.202Z,43.63
2023-03-11T16:33:44.735Z,43.15
2023-03-11T16:36:12.428Z,46.81
2023-03-11T16:38:45.317Z,46.51
2023-03-11T16:41:12.819Z,44.83
2023-03-11T16:43:40.383Z,44.79
2023-03-11T16:46:09.592Z,44.31
2023-03-11T16:48:37.137Z,44.13
2023-03-11T16:51:05.524Z,43.76
2023-03-11T16:53:33.123Z,46.29
2023-03-11T16:56:00.766Z,46.67
2023-03-11T16:58:28.612Z,47.29
2023-03-11T17:00:56.222Z,46.56
2023-03-11T17:03:27.545Z,45.19
2023-03-11T17:06:02.844Z,45.53
2023-03-11T17:08:30.702Z,44.95
2023-03-11T17:10:58.372Z,46.08
2023-03-11T17:13:25.974Z,47.23
2023-03-11T17:16:00.685Z,48.10
2023-03-11T17:18:30.405Z,46.21
2023-03-11T17:20:57.917Z,47.39
2023-03-11T17:23:25.425Z,45.71
2023-03-11T17:25:52.928Z,46.58
2023-03-11T17:28:20.484Z,46.93
2023-03-11T17:30:48.077Z,47.16
2023-03-11T17:33:15.614Z,47.20
2023-03-11T17:35:44.638Z,46.42
2023-03-11T17:38:12.147Z,47.21
2023-03-11T17:40:39.712Z,47.08
2023-03-11T17:43:07.592Z,47.13
2023-03-11T17:45:35.228Z,46.23
2023-03-11T17:48:02.813Z,46.20
2023-03-11T17:50:30.358Z,45.91
2023-03-11T17:52:59.342Z,46.10
2023-03-11T17:55:27.315Z,47.96
2023-03-11T17:57:54.987Z,49.24
2023-03-11T18:00:23.321Z,49.75
2023-03-11T18:02:51.352Z,51.15
2023-03-11T18:05:19.213Z,49.00
2023-03-11T18:07:46.804Z,50.64
2023-03-11T18:10:16.269Z,48.61
2023-03-11T18:12:45.415Z,47.74
2023-03-11T18:15:18.755Z,47.55
2023-03-11T18:17:46.514Z,48.24
2023-03-11T18:20:14.589Z,48.04
2023-03-11T18:22:46.222Z,47.81
2023-03-11T18:25:15.715Z,47.99
2023-03-11T18:27:43.516Z,48.49
2023-03-11T18:30:12.471Z,47.51
2023-03-11T18:32:40.355Z,48.04
2023-03-11T18:35:08.830Z,48.72
2023-03-11T18:37:36.410Z,51.40
2023-03-11T18:40:05.831Z,49.62
2023-03-11T18:42:35.213Z,49.53
2023-03-11T18:45:02.890Z,50.64
2023-03-11T18:47:30.542Z,51.67
2023-03-11T18:49:58.110Z,52.18
2023-03-11T18:52:25.659Z,50.06
2023-03-11T18:54:53.164Z,50.45
2023-03-11T18:57:20.670Z,50.34
2023-03-11T18:59:51.850Z,50.41
2023-03-11T19:02:19.549Z,50.38
2023-03-11T19:04:47.122Z,51.12
2023-03-11T19:07:14.749Z,51.05
2023-03-11T19:09:42.574Z,51.33
2023-03-11T19:12:10.226Z,51.70
2023-03-11T19:14:37.875Z,51.90
2023-03-11T19:17:07.012Z,51.46
2023-03-11T19:19:35.752Z,51.74
2023-03-11T19:22:03.218Z,51.89
2023-03-11T19:24:31.927Z,51.47
2023-03-11T19:26:59.438Z,51.36
2023-03-11T19:29:26.929Z,51.78
2023-03-11T19:31:54.427Z,51.74
2023-03-11T19:34:24.439Z,52.03
2023-03-11T19:36:51.983Z,52.04
2023-03-11T19:39:19.479Z,52.25
2023-03-11T19:41:46.991Z,52.22
2023-03-11T19:44:14.595Z,53.35
2023-03-11T19:46:42.691Z,53.46
2023-03-11T19:49:10.595Z,53.32
2023-03-11T19:51:49.763Z,53.28
2023-03-11T19:54:18.237Z,53.14
2023-03-11T19:56:46.280Z,52.75
2023-03-11T19:59:14.060Z,53.49
2023-03-11T20:01:42.298Z,53.10
2023-03-11T20:04:10.709Z,53.14
2023-03-11T20:06:39.708Z,52.86
2023-03-11T20:09:07.717Z,53.17
2023-03-11T20:11:38.778Z,53.01
2023-03-11T20:14:06.671Z,53.08
2023-03-11T20:16:34.516Z,53.17
2023-03-11T20:19:02.212Z,53.41
2023-03-11T20:21:29.900Z,53.79
2023-03-11T20:24:00.792Z,54.26
2023-03-11T20:26:28.362Z,54.16
2023-03-11T20:28:57.033Z,54.90
2023-03-11T20:31:26.701Z,55.43
2023-03-11T20:33:54.968Z,56.97
2023-03-11T20:36:24.734Z,57.21
2023-03-11T20:38:53.686Z,55.95
2023-03-11T20:41:24.138Z,54.95
2023-03-11T20:43:52.677Z,54.78
2023-03-11T20:46:20.503Z,54.92
2023-03-11T20:48:48.359Z,55.07
2023-03-11T20:51:21.343Z,55.68
2023-03-11T20:53:49.486Z,54.84
2023-03-11T20:56:19.423Z,54.77
2023-03-11T20:58:50.905Z,54.74
2023-03-11T21:01:20.961Z,55.70
2023-03-11T21:03:49.201Z,56.37
2023-03-11T21:06:18.480Z,58.15
2023-03-11T21:08:47.009Z,58.93
2023-03-11T21:11:14.832Z,56.55
2023-03-11T21:13:43.044Z,54.93
2023-03-11T21:16:12.432Z,55.21
2023-03-11T21:18:40.329Z,54.93
2023-03-11T21:21:11.656Z,55.11
2023-03-11T21:23:39.867Z,55.54
2023-03-11T21:26:08.306Z,55.58
2023-03-11T21:28:36.258Z,55.69
2023-03-11T21:31:06.313Z,55.64
2023-03-11T21:33:35.492Z,55.18
2023-03-11T21:36:03.243Z,56.78
2023-03-11T21:38:31.887Z,57.48
2023-03-11T21:41:07.135Z,56.99
2023-03-11T21:43:35.472Z,56.37
2023-03-11T21:46:03.265Z,55.65
2023-03-11T21:48:31.368Z,56.05
2023-03-11T21:51:00.715Z,56.13
2023-03-11T21:53:28.521Z,55.61
2023-03-11T21:55:56.449Z,56.31
2023-03-11T21:58:24.438Z,56.93
2023-03-11T22:00:52.159Z,57.22
2023-03-11T22:03:20.530Z,58.60
2023-03-11T22:05:48.203Z,58.07
2023-03-11T22:08:17.063Z,60.46
2023-03-11T22:10:44.758Z,60.69
2023-03-11T22:13:12.311Z,59.94
2023-03-11T22:15:40.070Z,58.33
2023-03-11T22:18:07.637Z,57.90
2023-03-11T22:20:35.308Z,60.01
2023-03-11T22:23:03.078Z,59.96
2023-03-11T22:25:31.985Z,60.07
2023-03-11T22:27:59.557Z,60.25
2023-03-11T22:30:27.525Z,59.62
2023-03-11T22:32:55.114Z,57.98
2023-03-11T22:35:22.796Z,57.38
2023-03-11T22:37:50.408Z,56.78
2023-03-11T22:40:17.961Z,56.99
2023-03-11T22:42:46.799Z,57.36
2023-03-11T22:45:14.443Z,57.17
2023-03-11T22:47:41.984Z,57.14
2023-03-11T22:50:10.527Z,56.79
2023-03-11T22:52:38.086Z,57.34
2023-03-11T22:55:06.189Z,57.50
2023-03-11T22:57:38.544Z,58.11
2023-03-11T23:00:17.006Z,58.31
2023-03-11T23:02:45.614Z,58.44
2023-03-11T23:05:13.983Z,57.84
2023-03-11T23:07:41.811Z,57.46
2023-03-11T23:10:11.476Z,57.79
2023-03-11T23:12:39.754Z,58.24
2023-03-11T23:15:12.210Z,56.99
2023-03-11T23:17:40.136Z,57.44
2023-03-11T23:20:13.873Z,58.80
2023-03-11T23:22:43.319Z,58.68
2023-03-11T23:25:13.057Z,58.30
2023-03-11T23:27:41.841Z,59.43
2023-03-11T23:30:12.849Z,58.18
2023-03-11T23:32:40.627Z,57.94
2023-03-11T23:35:08.931Z,57.58
2023-03-11T23:37:36.527Z,58.22
2023-03-11T23:40:05.326Z,57.59
2023-03-11T23:42:33.894Z,57.42
2023-03-11T23:45:01.708Z,59.61
2023-03-11T23:47:30.651Z,59.09
2023-03-11T23:49:58.286Z,58.94
2023-03-11T23:52:26.165Z,57.76
2023-03-11T23:54:53.772Z,56.87
2023-03-11T23:57:21.318Z,56.74
2023-03-11T23:59:48.855Z,56.46
